createdAt,value
2024-03-19T00:12:56.416Z,9.1
2024-03-19T00:31:23.043Z,9.9
2024-03-19T00:46:49.565Z,9.2
2024-03-19T01:02:13.817Z,9.1
2024-03-19T01:17:38.383Z,9
2024-03-19T01:33:03.722Z,8.9
2024-03-19T01:48:28.327Z,8.9
2024-03-19T02:03:53.462Z,8.8
2024-03-19T02:19:18.324Z,8.7
2024-03-19T02:34:42.951Z,8.7
2024-03-19T02:50:08.194Z,8.8
2024-03-19T03:05:33.398Z,8.7
2024-03-19T03:20:58.232Z,8.7
2024-03-19T03:36:22.754Z,8.5
2024-03-19T03:51:47.967Z,8.4
2024-03-19T04:07:11.995Z,8.3
2024-03-19T04:22:37.209Z,8.2
2024-03-19T04:38:01.786Z,8.1
2024-03-19T04:53:26.453Z,8
2024-03-19T05:08:51.502Z,7.8
2024-03-19T05:24:16.321Z,7.7
2024-03-19T05:39:40.660Z,7.6
2024-03-19T05:55:05.496Z,7.5
2024-03-19T06:10:31.124Z,7.5
2024-03-19T06:25:55.916Z,7.5
2024-03-19T06:41:20.774Z,7.6
2024-03-19T06:56:45.520Z,7.7
2024-03-19T07:12:10.705Z,8
2024-03-19T07:27:35.668Z,8.2
2024-03-19T07:43:01.161Z,8.3
2024-03-19T07:58:25.974Z,8.5
2024-03-19T08:13:50.923Z,8.9
2024-03-19T08:29:16.344Z,9.3
2024-03-19T08:44:41.689Z,9.4
2024-03-19T09:00:06.847Z,9.7
2024-03-19T09:15:32.613Z,10.2
2024-03-19T09:30:57.609Z,10.5
2024-03-19T09:46:22.813Z,10.7
2024-03-19T10:01:47.658Z,11
2024-03-19T10:17:13.130Z,11.4
2024-03-19T10:32:38.542Z,11.7
2024-03-19T10:48:03.792Z,12.2
2024-03-19T11:03:28.886Z,12.6
2024-03-19T11:18:54.378Z,13.1
2024-03-19T11:34:19.858Z,13.5
2024-03-19T11:49:46.034Z,14
2024-03-19T12:05:11.134Z,14.6
2024-03-19T12:20:38.872Z,17
2024-03-19T12:36:03.710Z,17.2
2024-03-19T12:51:29.232Z,17.3
2024-03-19T13:06:53.826Z,16.5
2024-03-19T13:22:18.844Z,15.7
2024-03-19T13:37:43.718Z,15.3
2024-03-19T13:53:09.846Z,15.3
2024-03-19T14:08:35.227Z,15.6
2024-03-19T14:24:00.496Z,15.5
2024-03-19T14:39:25.898Z,15.5
2024-03-19T14:54:50.850Z,15.3
2024-03-19T15:10:16.108Z,15
2024-03-19T15:25:41.237Z,14.8
2024-03-19T15:41:06.270Z,14.6
2024-03-19T15:56:31.247Z,14.6
2024-03-19T16:11:55.992Z,14.4
2024-03-19T16:27:20.867Z,14.2
2024-03-19T16:42:49.002Z,14.1
2024-03-19T16:58:15.296Z,14
2024-03-19T17:13:40.459Z,13.9
2024-03-19T17:29:05.264Z,13.8
2024-03-19T17:44:30.170Z,13.7
2024-03-19T17:59:55.327Z,13.5
2024-03-19T18:15:20.170Z,13.3
2024-03-19T18:30:44.549Z,13
2024-03-19T18:46:09.388Z,12.9
2024-03-19T19:01:34.381Z,12.8
2024-03-19T19:16:59.411Z,12.7
2024-03-19T19:32:24.324Z,12.6
2024-03-19T19:47:49.344Z,12.6
2024-03-19T20:03:14.424Z,12.6
2024-03-19T20:18:39.784Z,12.5
2024-03-19T20:34:04.532Z,12.5
2024-03-19T20:49:29.545Z,12.5
2024-03-19T21:04:54.705Z,12.5
2024-03-19T21:20:19.741Z,12.5
2024-03-19T21:35:45.449Z,12.5
2024-03-19T21:51:09.377Z,12.4
2024-03-19T22:06:33.918Z,12.4
2024-03-19T22:21:58.838Z,12.2
2024-03-19T22:37:23.602Z,12
2024-03-19T22:52:48.549Z,12
2024-03-19T23:08:12.954Z,12
2024-03-19T23:23:37.756Z,12.1
2024-03-19T23:39:02.454Z,12.2
2024-03-19T23:54:27.767Z,12.3
